Latest Weather Observations for Walpole North

IDW60801

Issued at 4:05 pm WST Friday 24 October 2014 (issued every 30 minutes, with the page automatically refreshed every 10 minutes)

About weather observations | Map of weather stations | Latest weather observations for WA | Other Formats
Station Details ID: 009998 Name: NORTH WALPOLE Lat: -34.95 Lon: 116.72 Height: 73.0 m
Data from the previous 72 hours. | See also: Recent months at Walpole North
Date/Time
WST
Temp
°C
App
Temp
°C
Dew
Point
Rel
Hum
%
Delta-T
°C
Wind Press
QNH
hPa
Press
MSL
hPa
Rain
since 9 am
mm
Dir
 
Spd
km/h
Gust
km/h
Spd
kts
Gust
kts
24/04:00pm 17.1 16.7 14.2 83 1.7 S 9 20 5 11 1014.9 1014.9 0.0
24/03:30pm 18.4 18.1 14.5 78 2.3 S 9 19 5 10 1014.5 1014.5 0.0
24/03:00pm 19.5 18.3 15.0 75 2.6 SSW 15 24 8 13 1014.6 1014.6 0.0
24/02:30pm 19.9 20.3 13.8 68 3.5 SSW 4 11 2 6 1014.8 1014.8 0.0
24/02:00pm 19.2 19.4 14.7 75 2.6 S 7 15 4 8 1015.3 1015.3 0.0
24/01:30pm 18.9 18.1 12.9 68 3.4 WSW 9 15 5 8 1015.8 1015.8 0.0
24/01:00pm 19.0 18.1 12.7 67 3.5 NW 9 13 5 7 1016.0 1016.0 0.0
24/12:30pm 18.8 17.6 12.8 68 3.4 N 11 17 6 9 1016.3 1016.3 0.0
24/12:00pm 18.4 17.6 13.0 71 3.0 N 9 15 5 8 1016.6 1016.6 0.0
24/11:30am 17.1 16.5 12.4 74 2.6 ESE 7 11 4 6 1017.1 1017.1 0.0
24/11:00am 17.5 17.2 12.8 74 2.6 NNE 6 11 3 6 1017.7 1017.7 0.0
24/10:30am 16.7 15.6 11.8 73 2.7 ENE 9 15 5 8 1017.8 1017.8 0.0
24/10:00am 16.2 15.4 11.8 75 2.4 NE 7 11 4 6 1018.2 1018.2 0.0
24/09:30am 15.8 15.2 12.4 80 1.9 NNE 7 11 4 6 1018.1 1018.1 0.0
24/09:00am 15.9 15.7 13.7 87 1.2 E 7 13 4 7 1018.0 1018.0 0.6
24/08:30am 15.0 16.2 13.9 93 0.6 NE 0 0 0 0 1018.0 1018.0 0.6
24/08:00am 14.4 15.6 13.9 97 0.3 CALM 0 0 0 0 1017.9 1017.9 0.6
24/07:30am 13.8 14.9 13.6 99 0.1 CALM 0 0 0 0 1017.9 1017.9 0.6
24/07:00am 12.9 13.7 12.7 99 0.1 CALM 0 0 0 0 1017.8 1017.8 0.6
24/06:30am 12.1 12.7 11.9 99 0.1 CALM 0 0 0 0 1018.0 1018.0 0.6
24/06:00am 11.9 12.4 11.7 99 0.1 W 0 0 0 0 1017.8 1017.8 0.6
24/05:30am 12.2 12.8 12.0 99 0.1 CALM 0 0 0 0 1017.7 1017.7 0.6
24/05:00am 12.4 13.1 12.1 98 0.2 CALM 0 0 0 0 1017.5 1017.5 0.6
24/04:30am 12.5 13.2 12.2 98 0.2 CALM 0 0 0 0 1017.6 1017.6 0.6
24/04:00am 12.6 13.3 12.1 97 0.3 CALM 0 0 0 0 1017.7 1017.7 0.6
24/03:30am 12.7 13.4 12.2 97 0.3 CALM 0 0 0 0 1018.0 1018.0 0.6
24/03:00am 12.6 13.3 12.1 97 0.3 CALM 0 0 0 0 1018.1 1018.1 0.6
24/02:30am 12.6 13.3 12.1 97 0.3 CALM 0 0 0 0 1018.0 1018.0 0.6
24/02:00am 12.8 13.5 12.3 97 0.3 CALM 0 0 0 0 1017.8 1017.8 0.6
24/01:30am 12.8 13.5 12.3 97 0.3 CALM 0 0 0 0 1018.0 1018.0 0.6
24/01:00am 12.8 13.5 12.3 97 0.3 CALM 0 0 0 0 1018.1 1018.1 0.6
24/12:30am 13.2 14.0 12.7 97 0.3 CALM 0 0 0 0 1018.2 1018.2 0.6
24/12:00am 13.2 14.0 12.7 97 0.3 SSW 0 0 0 0 1018.3 1018.3 0.6
 
Date/Time
WST
Temp
°C
App
Temp
°C
Dew
Point
Rel
Hum
%
Delta-T
°C
Wind Press
QNH
hPa
Press
MSL
hPa
Rain
since 9 am
mm
Dir
 
Spd
km/h
Gust
km/h
Spd
kts
Gust
kts
23/11:30pm 13.1 13.5 12.6 97 0.3 SW 2 7 1 4 1018.3 1018.3 0.6
23/11:00pm 13.3 14.2 12.8 97 0.3 CALM 0 0 0 0 1018.1 1018.1 0.6
23/10:30pm 13.3 13.4 12.8 97 0.3 WSW 4 9 2 5 1018.2 1018.2 0.6
23/10:00pm 13.5 14.4 13.0 97 0.3 CALM 0 6 0 3 1018.2 1018.2 0.6
23/09:30pm 13.7 13.5 13.1 96 0.3 SW 6 9 3 5 1018.2 1018.2 0.6
23/09:00pm 13.7 14.2 12.8 94 0.5 SW 2 9 1 5 1018.1 1018.1 0.4
23/08:30pm 13.8 12.8 12.4 91 0.8 SSW 9 11 5 6 1018.1 1018.1 0.4
23/08:00pm 14.1 13.0 12.1 88 1.1 S 9 19 5 10 1017.8 1017.8 0.4
23/07:30pm 14.0 14.5 11.5 85 1.3 CALM 0 2 0 1 1017.4 1017.4 0.4
23/07:00pm 14.6 14.8 11.7 83 1.6 SSW 2 9 1 5 1017.3 1017.3 0.4
23/06:30pm 14.9 14.6 11.5 80 1.8 SSW 4 7 2 4 1016.9 1016.9 0.4
23/06:00pm 15.1 14.2 11.5 79 1.9 SSW 7 15 4 8 1016.6 1016.6 0.4
23/05:30pm 15.4 13.4 11.6 78 2.1 SW 13 26 7 14 1016.5 1016.5 0.4
23/05:00pm 16.1 13.7 11.5 74 2.5 SW 15 26 8 14 1016.2 1016.2 0.4
23/04:30pm 15.5 13.4 11.1 75 2.4 SW 13 22 7 12 1016.0 1016.0 0.4
23/04:00pm 16.4 13.7 11.6 73 2.6 SW 17 28 9 15 1015.7 1015.7 0.4
23/03:30pm 16.0 13.1 12.2 78 2.1 SW 19 30 10 16 1015.4 1015.4 0.4
23/03:00pm 15.7 12.7 12.5 81 1.8 WSW 20 32 11 17 1015.0 1015.0 0.4
23/02:30pm 15.9 11.8 12.6 81 1.8 WSW 26 41 14 22 1014.7 1014.7 0.4
23/02:00pm 16.2 13.4 13.1 82 1.7 SW 20 35 11 19 1014.2 1014.2 0.4
23/01:30pm 16.1 12.4 13.9 87 1.2 SW 26 35 14 19 1014.1 1014.1 0.4
23/01:00pm 15.6 12.9 14.5 93 0.6 WSW 22 32 12 17 1013.7 1013.7 0.4
23/12:30pm 15.4 13.0 14.3 93 0.6 WSW 20 32 11 17 1013.3 1013.3 0.2
23/12:00pm 15.8 12.1 13.8 88 1.1 WSW 26 44 14 24 1012.9 1012.8 0.0
23/11:30am 16.6 13.8 14.4 87 1.3 WSW 22 39 12 21 1012.5 1012.4 0.0
23/11:00am 16.4 12.4 14.1 86 1.3 WSW 28 43 15 23 1012.4 1012.3 0.0
23/10:38am 16.7 12.9 14.7 88 1.2 WSW 28 48 15 26 1012.1 1012.0 0.0
23/10:30am 17.0 13.4 15.3 90 1.0 W 28 43 15 23 1012.0 1011.9 0.0
23/10:00am 16.4 14.0 15.4 94 0.6 WSW 22 35 12 19 1011.8 1011.7 0.0
23/09:30am 16.2 13.9 15.6 96 0.4 W 22 35 12 19 1011.3 1011.2 0.0
23/09:19am 16.2 12.7 15.4 95 0.5 W 28 48 15 26 1011.1 1011.0 0.0
23/09:00am 16.5 14.9 15.9 96 0.4 W 19 30 10 16 1010.9 1010.8 11.6
23/08:30am 16.3 14.2 15.2 93 0.6 WNW 20 30 11 16 1010.5 1010.4 11.4
23/08:00am 16.4 14.2 14.8 90 0.9 WNW 20 30 11 16 1010.2 1010.1 11.0
23/07:30am 16.4 13.3 14.6 89 1.0 WNW 24 39 13 21 1009.8 1009.7 11.0
23/07:00am 15.8 13.1 14.5 92 0.7 NW 22 33 12 18 1009.6 1009.5 11.0
23/06:30am 15.1 12.3 14.3 95 0.5 NW 22 33 12 18 1009.6 1009.5 11.0
23/06:00am 14.8 11.6 14.3 97 0.3 NW 24 33 13 18 1009.4 1009.3 11.0
23/05:30am 14.9 11.9 14.7 99 0.1 NW 24 35 13 19 1009.3 1009.2 11.0
23/05:00am 15.0 12.4 14.8 99 0.1 NW 22 35 12 19 1009.2 1009.1 11.0
23/04:30am 15.0 12.9 14.8 99 0.1 NW 19 26 10 14 1009.2 1009.1 11.0
23/04:00am 14.8 13.8 14.6 99 0.1 WNW 13 19 7 10 1009.4 1009.3 11.0
23/03:30am 15.2 13.2 15.0 99 0.1 WNW 19 26 10 14 1009.4 1009.3 11.0
23/03:00am 15.7 15.0 15.5 99 0.1 WNW 13 20 7 11 1009.3 1009.2 10.8
23/02:30am 15.7 15.4 15.5 99 0.1 WNW 11 13 6 7 1009.2 1009.1 10.8
23/02:00am 16.2 15.7 16.0 99 0.1 WNW 13 17 7 9 1009.2 1009.1 10.8
23/01:30am 16.5 15.0 16.3 99 0.1 WNW 19 24 10 13 1009.3 1009.2 10.8
23/01:00am 16.7 15.3 16.5 99 0.1 WNW 19 28 10 15 1009.6 1009.5 10.8
23/12:30am 16.7 16.4 16.5 99 0.1 WNW 13 15 7 8 1010.0 1009.9 10.8
23/12:00am 16.6 18.8 16.4 99 0.1 CALM 0 0 0 0 1010.2 1010.1 10.8
 
Date/Time
WST
Temp
°C
App
Temp
°C
Dew
Point
Rel
Hum
%
Delta-T
°C
Wind Press
QNH
hPa
Press
MSL
hPa
Rain
since 9 am
mm
Dir
 
Spd
km/h
Gust
km/h
Spd
kts
Gust
kts
22/11:30pm 16.7 18.9 16.5 99 0.1 CALM 0 0 0 0 1010.6 1010.5 10.8
22/11:00pm 16.9 19.2 16.7 99 0.1 CALM 0 0 0 0 1010.9 1010.8 10.8
22/10:30pm 17.1 19.5 16.9 99 0.1 CALM 0 0 0 0 1011.0 1010.9 10.8
22/10:00pm 17.3 19.7 17.1 99 0.1 CALM 0 6 0 3 1011.1 1011.0 10.8
22/09:30pm 17.4 19.1 17.2 99 0.1 N 4 13 2 7 1011.3 1011.2 10.4
22/09:00pm 17.4 19.8 17.1 98 0.2 CALM 0 0 0 0 1011.5 1011.4 8.8
22/08:30pm 17.5 17.4 17.0 97 0.3 ENE 13 17 7 9 1011.3 1011.2 8.8
22/08:00pm 18.0 18.4 17.2 95 0.5 NE 11 20 6 11 1011.9 1011.8 7.2
22/07:30pm 18.3 18.3 17.1 93 0.7 ENE 13 24 7 13 1010.5 1010.4 4.2
22/07:00pm 18.8 18.9 17.5 92 0.8 ENE 13 20 7 11 1010.1 1010.0 3.2
22/06:30pm 19.0 19.7 17.1 89 1.2 NE 9 15 5 8 1009.4 1009.3 3.0
22/06:00pm 19.7 20.6 16.0 79 2.2 N 6 13 3 7 1010.8 1010.7 1.6
22/05:30pm 22.4 22.8 16.2 68 3.8 NNE 9 15 5 8 1010.3 1010.2 0.2
22/05:00pm 23.4 24.0 15.7 62 4.7 ESE 7 13 4 7 1009.4 1009.3 0.0
22/04:30pm 24.7 24.0 15.3 56 5.7 NE 13 30 7 16 1008.8 1008.7 0.0
22/04:00pm 26.0 24.0 16.5 55 5.9 ENE 22 43 12 23 1008.5 1008.4 0.0
22/03:30pm 25.9 23.7 15.9 54 6.1 ENE 22 35 12 19 1009.7 1009.6 0.0
22/03:00pm 26.0 24.5 16.8 57 5.7 ENE 20 35 11 19 1010.3 1010.2 0.0
22/02:30pm 25.7 24.0 16.3 56 5.8 ENE 20 33 11 18 1010.9 1010.8 0.0
22/02:00pm 25.0 22.5 16.2 58 5.4 ENE 24 35 13 19 1011.6 1011.5 0.0
22/01:30pm 24.6 22.8 16.1 59 5.2 E 20 28 11 15 1012.5 1012.4 0.0
22/01:00pm 24.3 22.8 16.3 61 4.9 ENE 19 30 10 16 1013.1 1013.0 0.0
22/12:30pm 23.5 21.5 16.5 65 4.3 NE 22 35 12 19 1013.9 1013.9 0.0
22/12:00pm 22.6 20.2 16.4 68 3.8 NE 24 37 13 20 1014.4 1014.4 0.0
22/11:30am 21.8 19.1 15.6 68 3.7 NE 24 39 13 21 1015.1 1015.1 0.0
22/11:00am 20.7 17.1 15.3 71 3.2 ENE 28 41 15 22 1015.6 1015.6 0.0
22/10:30am 20.3 18.2 15.3 73 3.0 ENE 20 35 11 19 1016.5 1016.5 0.0
22/10:00am 18.8 16.7 14.7 77 2.4 ENE 19 30 10 16 1017.5 1017.5 0.0
22/09:30am 17.0 14.9 13.7 81 1.9 ENE 17 26 9 14 1018.0 1018.0 0.0
22/09:00am 15.2 13.2 12.7 85 1.4 E 15 24 8 13 1018.8 1018.8 0.2
22/08:30am 14.3 11.2 12.2 87 1.1 E 20 35 11 19 1019.0 1019.0 0.2
22/08:00am 13.6 10.6 12.0 90 0.9 E 19 30 10 16 1019.1 1019.1 0.2
22/07:30am 12.9 9.7 11.3 90 0.8 E 19 30 10 16 1019.3 1019.3 0.2
22/07:00am 12.5 10.4 11.1 91 0.7 E 13 22 7 12 1019.9 1019.8 0.2
22/06:30am 11.8 8.8 10.7 93 0.6 ENE 17 26 9 14 1019.7 1019.7 0.2
22/06:00am 10.7 8.2 9.6 93 0.6 ENE 13 20 7 11 1020.0 1019.9 0.2
22/05:30am 10.3 8.1 9.2 93 0.5 E 11 19 6 10 1019.9 1019.8 0.2
22/05:00am 10.0 7.3 8.8 92 0.6 E 13 20 7 11 1019.6 1019.6 0.2
22/04:30am 9.7 7.3 8.5 92 0.6 ENE 11 19 6 10 1019.5 1019.5 0.2
22/04:00am 9.7 7.2 8.3 91 0.7 E 11 15 6 8 1019.9 1019.8 0.2
22/03:30am 9.6 7.1 8.2 91 0.7 E 11 15 6 8 1020.1 1020.0 0.2
22/03:00am 9.0 6.7 7.5 90 0.7 ESE 9 13 5 7 1020.5 1020.4 0.2
22/02:30am 9.5 7.2 7.6 88 0.9 ESE 9 15 5 8 1020.6 1020.5 0.2
22/02:00am 9.9 7.4 8.0 88 0.9 ENE 11 15 6 8 1020.8 1020.7 0.2
22/01:30am 9.8 7.6 7.9 88 0.9 ENE 9 13 5 7 1021.1 1021.0 0.2
22/01:00am 10.0 7.8 7.8 86 1.1 ENE 9 15 5 8 1021.4 1021.3 0.2
22/12:30am 10.3 8.1 7.9 85 1.2 ENE 9 15 5 8 1021.5 1021.4 0.2
22/12:00am 10.7 7.8 8.3 85 1.2 ENE 13 19 7 10 1021.8 1021.7 0.2
 
Date/Time
WST
Temp
°C
App
Temp
°C
Dew
Point
Rel
Hum
%
Delta-T
°C
Wind Press
QNH
hPa
Press
MSL
hPa
Rain
since 9 am
mm
Dir
 
Spd
km/h
Gust
km/h
Spd
kts
Gust
kts
21/11:30pm 11.2 8.0 8.6 84 1.3 ENE 15 22 8 12 1022.1 1022.0 0.2
21/11:00pm 11.3 8.2 8.9 85 1.2 ENE 15 20 8 11 1022.2 1022.1 0.2
21/10:30pm 11.0 8.3 8.8 86 1.1 ENE 13 19 7 10 1022.5 1022.4 0.2
21/10:00pm 10.8 8.8 8.6 86 1.1 ENE 9 13 5 7 1022.8 1022.7 0.2
21/09:30pm 11.2 8.8 8.6 84 1.3 E 11 15 6 8 1023.1 1023.0 0.2
21/09:00pm 11.0 9.3 8.2 83 1.4 ENE 7 13 4 7 1023.3 1023.2 0.2
21/08:30pm 11.3 9.2 8.2 81 1.5 ENE 9 13 5 7 1023.3 1023.2 0.2
21/08:00pm 11.9 9.5 8.6 80 1.6 E 11 17 6 9 1023.4 1023.3 0.2
21/07:30pm 11.9 9.8 8.2 78 1.8 ESE 9 11 5 6 1023.3 1023.2 0.2
21/07:00pm 12.1 9.9 7.8 75 2.1 ESE 9 13 5 7 1023.1 1023.0 0.2
21/06:30pm 13.0 10.5 8.3 73 2.3 ESE 11 17 6 9 1022.9 1022.8 0.2
21/06:00pm 14.0 11.2 8.6 70 2.7 ESE 13 19 7 10 1022.7 1022.6 0.2
21/05:30pm 14.9 11.4 8.8 67 3.1 ESE 17 24 9 13 1022.3 1022.2 0.2
21/05:00pm 15.5 11.5 8.3 62 3.6 SE 19 26 10 14 1022.3 1022.2 0.2
21/04:30pm 16.3 12.1 8.3 59 4.1 ESE 20 26 11 14 1022.2 1022.1 0.2

Other Formats:

Comma delimited format used in spreadsheet applications
http://www.bom.gov.au/fwo/IDW60801/IDW60801.95647.axf

JavaScript Object Notation format (JSON) in row-major order
http://www.bom.gov.au/fwo/IDW60801/IDW60801.95647.json